Real del Padre, Argentina
Current Conditions -  °F | °C
As of 3:00 AM on Saturday 20 Dec 2014 (Local Time) from SAME Reporting Station
Thunderstorm Thunderstorm  
Wind Chill: 77°   Ceiling: Unl
Heat Index: 78°   Visibility: 6mi
Dew Point: 43°   Wind: 13mph
Humidity: 29%   Direction: 180°S
Pressure: 29.59"   Gusts: NA
Location:  34.83°S, 67.77°W
Report Text: SAME 200600Z 18011KT 9999 VCTS FEW040FEW045CB 25/06 Q1002
Loading
Personal Weather Stations






























Interactive Weather Map New forecast layout! Learn more

10-Day Weather Forecast

Advertisements
Track Severe Weather on mobile